Time;durP1;ratioP1;P1;durP2;ratioP2;P2;SDS_P1;SDS_P2;PMS_P1;PMS_P2;Temp;Humidity;BMP_temperature;BMP_pressure;BME280_temperature;BME280_humidity;BME280_pressure;Samples;Min_cycle;Max_cycle;Signal;HPM_P1;HPM_P2
2023/06/10 00:07:41;;;;;;;16.23;10.48;;;;;;;;;;6218927;22;20348;-84
2023/06/10 00:10:07;;;;;;;11.98;9.48;;;;;;;;;;6187130;23;20012;-84
2023/06/10 00:12:45;;;;;;;14.48;10.57;;;;;;;;;;6187266;23;20019;-84
2023/06/10 00:15:11;;;;;;;12.82;9.55;;;;;;;;;;6186789;23;20016;-86
2023/06/10 00:18:17;;;;;;;11.85;8.57;;;;;;;;;;6187157;23;20001;-84
2023/06/10 00:20:52;;;;;;;11.77;9.93;;;;;;;;;;6186447;23;20424;-84
2023/06/10 00:23:30;;;;;;;15.98;9.95;;;;;;;;;;6187418;23;20015;-84
2023/06/10 00:26:02;;;;;;;11.68;9.15;;;;;;;;;;6186039;23;20025;-84
2023/06/10 00:28:28;;;;;;;11.35;9.85;;;;;;;;;;6187302;23;20058;-85
2023/06/10 00:30:57;;;;;;;16.80;10.93;;;;;;;;;;6185808;23;20048;-85
2023/06/10 00:33:29;;;;;;;10.80;9.32;;;;;;;;;;6185722;23;20099;-84
2023/06/10 00:36:16;;;;;;;11.77;8.98;;;;;;;;;;6212218;23;20082;-85
2023/06/10 00:38:49;;;;;;;10.65;8.80;;;;;;;;;;6119484;23;20022;-87
2023/06/10 00:41:39;;;;;;;12.43;9.75;;;;;;;;;;6117376;23;20036;-86
2023/06/10 00:44:18;;;;;;;15.15;10.52;;;;;;;;;;6180560;23;20005;-87
2023/06/10 00:46:55;;;;;;;13.18;9.82;;;;;;;;;;6178456;23;20017;-85
2023/06/10 00:50:06;;;;;;;12.25;9.85;;;;;;;;;;6177568;23;20023;-86
2023/06/10 00:53:01;;;;;;;10.27;8.35;;;;;;;;;;6137580;23;20017;-86
2023/06/10 00:59:20;;;;;;;16.55;11.05;;;;;;;;;;6178886;23;20001;-87
2023/06/10 01:02:12;;;;;;;19.67;17.73;;;;;;;;;;6177592;23;20034;-86
2023/06/10 01:05:08;;;;;;;21.73;18.52;;;;;;;;;;6175527;23;20437;-87
2023/06/10 01:08:10;;;;;;;18.48;16.55;;;;;;;;;;6178863;23;20024;-87
2023/06/10 01:14:24;;;;;;;;;;;;;;;;;;;;;
2023/06/10 01:33:44;;;;;;;;;;;;;;;;;;;;;
2023/06/10 01:46:57;;;;;;;10.70;9.23;;;;;;;;;;6066713;23;20257;-86
2023/06/10 01:52:34;;;;;;;12.32;9.98;;;;;;;;;;5921465;24;20017;-87
2023/06/10 01:55:33;;;;;;;14.43;10.50;;;;;;;;;;5997797;23;20027;-87
2023/06/10 01:58:01;;;;;;;14.35;12.48;;;;;;;;;;6035412;23;20489;-86
2023/06/10 02:13:45;;;;;;;22.35;18.05;;;;;;;;;;6074836;23;20006;-86
2023/06/10 02:26:22;;;;;;;16.42;14.40;;;;;;;;;;6133385;23;20055;-84
2023/06/10 03:12:14;;;;;;;14.65;10.07;;;;;;;;;;6205473;23;20111;-87
2023/06/10 04:30:58;;;;;;;13.45;11.60;;;;;;;;;;6165342;23;20083;-86
2023/06/10 04:34:00;;;;;;;;;;;;;;;;;;;;;
2023/06/10 05:02:39;;;;;;;;;;;;;;;;;;;;;
2023/06/10 05:22:24;;;;;;;20.63;17.48;;;;;;;;;;6173918;23;20031;-88
2023/06/10 05:30:50;;;;;;;19.88;17.58;;;;;;;;;;6153174;23;20033;-86
2023/06/10 05:33:16;;;;;;;21.77;19.58;;;;;;;;;;6131583;23;20001;-86
2023/06/10 05:35:42;;;;;;;20.75;17.02;;;;;;;;;;6130275;23;20020;-88
2023/06/10 05:38:08;;;;;;;21.50;16.00;;;;;;;;;;6128781;23;20005;-87
2023/06/10 05:40:34;;;;;;;20.25;14.40;;;;;;;;;;6157093;23;20016;-88
2023/06/10 05:43:00;;;;;;;17.10;14.00;;;;;;;;;;6130964;23;20009;-86
2023/06/10 05:45:27;;;;;;;15.35;13.38;;;;;;;;;;6158441;23;20009;-85
2023/06/10 05:47:53;;;;;;;16.90;13.90;;;;;;;;;;6132275;23;20012;-86
2023/06/10 05:50:19;;;;;;;14.05;12.38;;;;;;;;;;6131843;23;20010;-86
2023/06/10 05:52:45;;;;;;;15.63;13.38;;;;;;;;;;6131551;23;20056;-84
2023/06/10 05:55:11;;;;;;;18.38;13.23;;;;;;;;;;6153470;23;20017;-85
2023/06/10 06:53:26;;;;;;;11.93;8.70;;;;;;;;;;6170793;23;20080;-86
2023/06/10 06:56:01;;;;;;;12.60;9.40;;;;;;;;;;6155496;23;20091;-88
2023/06/10 07:11:43;;;;;;;11.90;9.48;;;;;;;;;;6196783;23;20025;-88
2023/06/10 07:14:12;;;;;;;12.63;10.07;;;;;;;;;;6185349;23;20004;-85
2023/06/10 07:16:38;;;;;;;10.75;9.60;;;;;;;;;;6184375;23;20701;-85
2023/06/10 07:19:04;;;;;;;15.30;9.98;;;;;;;;;;6211643;23;20009;-85
2023/06/10 07:21:33;;;;;;;15.10;10.77;;;;;;;;;;6184669;23;20049;-89
2023/06/10 07:23:59;;;;;;;14.70;9.70;;;;;;;;;;6184469;23;20609;-87
2023/06/10 07:26:25;;;;;;;12.15;9.55;;;;;;;;;;6185316;23;20020;-87
2023/06/10 07:28:54;;;;;;;12.13;9.38;;;;;;;;;;6211329;23;20070;-88
2023/06/10 07:31:31;;;;;;;11.50;8.57;;;;;;;;;;6186242;23;20020;-86
2023/06/10 07:34:20;;;;;;;11.00;8.13;;;;;;;;;;6188600;23;20039;-86
2023/06/10 07:36:46;;;;;;;10.15;8.80;;;;;;;;;;6188080;23;20023;-86
2023/06/10 07:39:14;;;;;;;11.30;8.40;;;;;;;;;;6187498;23;20017;-87
2023/06/10 07:48:29;;;;;;;8.98;6.45;;;;;;;;;;6123468;23;20378;-86
2023/06/10 07:50:55;;;;;;;8.30;7.18;;;;;;;;;;6097991;23;20726;-86
2023/06/10 07:53:29;;;;;;;7.25;6.45;;;;;;;;;;6095786;23;20010;-86
2023/06/10 07:56:09;;;;;;;9.73;6.75;;;;;;;;;;6153454;23;20067;-86
2023/06/10 07:58:45;;;;;;;7.70;6.65;;;;;;;;;;6206451;23;20080;-85
2023/06/10 08:04:39;;;;;;;7.28;5.38;;;;;;;;;;6126447;23;20019;-86
2023/06/10 08:07:08;;;;;;;5.70;4.18;;;;;;;;;;6187909;23;20009;-85
2023/06/10 08:09:56;;;;;;;5.75;4.55;;;;;;;;;;6187986;23;20015;-86
2023/06/10 08:12:23;;;;;;;6.50;4.97;;;;;;;;;;6166206;23;20033;-85
2023/06/10 08:14:49;;;;;;;8.27;4.70;;;;;;;;;;6164862;23;20329;-84
2023/06/10 08:17:15;;;;;;;8.57;5.32;;;;;;;;;;6161245;23;20009;-85
2023/06/10 08:19:44;;;;;;;9.73;5.50;;;;;;;;;;6184260;23;20766;-84
2023/06/10 08:22:10;;;;;;;9.70;6.10;;;;;;;;;;6185460;23;20047;-85
2023/06/10 08:24:36;;;;;;;8.18;5.43;;;;;;;;;;6186104;23;20514;-84
2023/06/10 08:27:02;;;;;;;11.50;6.68;;;;;;;;;;6157672;23;20013;-84
2023/06/10 08:29:29;;;;;;;8.93;6.63;;;;;;;;;;6159989;23;20665;-85
2023/06/10 08:31:55;;;;;;;7.82;6.53;;;;;;;;;;6184822;23;20333;-85
2023/06/10 08:34:21;;;;;;;9.63;6.97;;;;;;;;;;6159724;23;20047;-88
2023/06/10 08:36:52;;;;;;;9.77;6.35;;;;;;;;;;6156598;23;20720;-84
2023/06/10 08:39:19;;;;;;;8.35;7.25;;;;;;;;;;6157304;23;20071;-85
2023/06/10 08:41:49;;;;;;;9.07;7.63;;;;;;;;;;6157678;23;20454;-85
2023/06/10 08:44:22;;;;;;;8.05;6.07;;;;;;;;;;6157844;23;20013;-85
2023/06/10 08:46:49;;;;;;;8.63;6.32;;;;;;;;;;6157284;23;20036;-84
2023/06/10 08:49:18;;;;;;;8.77;5.97;;;;;;;;;;6181393;23;20444;-85
2023/06/10 08:51:45;;;;;;;6.60;5.00;;;;;;;;;;6156439;23;20036;-84
2023/06/10 08:54:14;;;;;;;8.57;5.03;;;;;;;;;;6183939;23;20009;-85
2023/06/10 08:56:41;;;;;;;6.43;4.38;;;;;;;;;;6182735;23;20013;-85
2023/06/10 08:59:08;;;;;;;5.70;3.40;;;;;;;;;;6156305;23;20005;-84
2023/06/10 09:01:34;;;;;;;5.68;3.35;;;;;;;;;;6156644;23;20349;-85
2023/06/10 09:04:00;;;;;;;6.72;3.47;;;;;;;;;;6157242;23;20045;-85
2023/06/10 09:06:27;;;;;;;7.20;3.50;;;;;;;;;;6155887;23;20024;-85
2023/06/10 09:08:53;;;;;;;6.78;3.60;;;;;;;;;;6156693;23;20017;-84
2023/06/10 09:11:19;;;;;;;8.65;3.30;;;;;;;;;;6158446;23;20373;-85
2023/06/10 09:13:45;;;;;;;5.28;2.88;;;;;;;;;;6181069;23;20070;-85
2023/06/10 09:16:12;;;;;;;6.65;2.67;;;;;;;;;;6182709;23;20005;-85
2023/06/10 09:18:38;;;;;;;6.28;2.72;;;;;;;;;;6181619;23;20005;-85
2023/06/10 09:21:04;;;;;;;5.10;2.53;;;;;;;;;;6181486;23;20009;-85
2023/06/10 09:23:31;;;;;;;3.55;2.03;;;;;;;;;;6180522;23;20055;-85
2023/06/10 09:25:58;;;;;;;3.90;2.20;;;;;;;;;;6181846;23;20105;-85
2023/06/10 09:28:24;;;;;;;4.07;2.50;;;;;;;;;;6181377;23;20009;-85
2023/06/10 09:30:50;;;;;;;3.85;2.45;;;;;;;;;;6183895;23;20017;-85
2023/06/10 09:33:16;;;;;;;4.60;2.58;;;;;;;;;;6182052;23;20008;-85
2023/06/10 09:35:46;;;;;;;3.20;2.17;;;;;;;;;;6181249;23;20374;-85
2023/06/10 09:38:12;;;;;;;6.13;2.67;;;;;;;;;;6180503;23;20055;-85
2023/06/10 09:40:54;;;;;;;3.90;2.47;;;;;;;;;;6180982;23;20028;-85
2023/06/10 09:43:20;;;;;;;;;;;;;;;;;;6181547;23;20329;-85
2023/06/10 09:45:52;;;;;;;5.53;2.42;;;;;;;;;;6181521;23;19912;-86
2023/06/10 09:48:18;;;;;;;3.83;2.03;;;;;;;;;;6181139;23;20087;-85
2023/06/10 09:50:46;;;;;;;4.78;2.22;;;;;;;;;;6181086;23;20012;-85
2023/06/10 09:53:12;;;;;;;4.53;2.30;;;;;;;;;;6180395;23;20020;-84
2023/06/10 09:55:39;;;;;;;4.20;2.10;;;;;;;;;;6181399;23;20126;-85
2023/06/10 09:58:05;;;;;;;3.72;2.03;;;;;;;;;;6180663;23;20066;-85
2023/06/10 10:00:32;;;;;;;3.17;1.55;;;;;;;;;;6182285;23;20048;-85
2023/06/10 10:02:59;;;;;;;4.10;1.80;;;;;;;;;;6181551;23;20007;-85
2023/06/10 10:05:25;;;;;;;4.88;1.65;;;;;;;;;;6183735;23;20024;-85
2023/06/10 10:07:52;;;;;;;3.92;1.40;;;;;;;;;;6181679;23;20016;-85
2023/06/10 10:10:18;;;;;;;3.30;1.58;;;;;;;;;;6182511;23;20779;-85
2023/06/10 10:12:47;;;;;;;4.18;1.40;;;;;;;;;;6181874;23;20035;-85
2023/06/10 10:15:13;;;;;;;3.25;1.70;;;;;;;;;;6181647;23;20199;-85
2023/06/10 10:18:00;;;;;;;5.00;1.70;;;;;;;;;;6181544;23;20016;-86
2023/06/10 10:20:31;;;;;;;3.22;1.50;;;;;;;;;;6181483;23;20532;-86
2023/06/10 10:22:58;;;;;;;3.15;1.45;;;;;;;;;;6181020;23;20005;-86
2023/06/10 10:25:28;;;;;;;3.70;1.60;;;;;;;;;;6181046;23;20020;-86
2023/06/10 10:27:57;;;;;;;2.90;1.30;;;;;;;;;;6181804;23;20075;-85
2023/06/10 10:30:24;;;;;;;2.85;1.15;;;;;;;;;;6181942;23;20073;-85
2023/06/10 10:33:04;;;;;;;3.88;1.55;;;;;;;;;;6181496;23;20863;-86
2023/06/10 10:35:31;;;;;;;3.10;1.58;;;;;;;;;;6178507;23;20100;-85
2023/06/10 10:37:57;;;;;;;2.53;1.25;;;;;;;;;;6181592;23;20417;-85
2023/06/10 10:40:24;;;;;;;3.08;1.35;;;;;;;;;;6180092;23;20087;-86
2023/06/10 10:42:51;;;;;;;3.67;1.40;;;;;;;;;;6180442;23;20028;-85
2023/06/10 10:45:21;;;;;;;2.05;1.10;;;;;;;;;;6179829;23;20016;-87
2023/06/10 10:47:52;;;;;;;2.00;1.05;;;;;;;;;;6178810;23;20021;-87
2023/06/10 10:50:19;;;;;;;3.42;1.42;;;;;;;;;;6178214;23;20036;-87
2023/06/10 10:53:05;;;;;;;2.20;1.17;;;;;;;;;;6179257;23;20441;-85
2023/06/10 10:55:31;;;;;;;3.08;1.45;;;;;;;;;;6179636;23;20027;-87
2023/06/10 10:58:05;;;;;;;5.25;1.58;;;;;;;;;;6180697;23;20001;-88
2023/06/10 11:00:34;;;;;;;3.25;1.40;;;;;;;;;;6179362;23;20017;-86
2023/06/10 11:03:06;;;;;;;4.75;1.40;;;;;;;;;;6179292;23;20005;-87
2023/06/10 11:05:44;;;;;;;4.88;1.30;;;;;;;;;;6182423;23;20005;-87
2023/06/10 11:33:40;;;;;;;3.70;1.52;;;;;;;;;;6159658;23;20025;-84
2023/06/10 11:36:09;;;;;;;3.50;1.67;;;;;;;;;;6186688;23;20652;-88
2023/06/10 11:39:10;;;;;;;2.97;1.40;;;;;;;;;;6184194;23;20005;-88
2023/06/10 11:41:54;;;;;;;4.80;1.45;;;;;;;;;;6183492;23;20065;-84
2023/06/10 11:44:20;;;;;;;3.85;1.70;;;;;;;;;;6211088;23;20783;-84
2023/06/10 11:46:48;;;;;;;3.13;1.50;;;;;;;;;;6184287;23;20012;-86
2023/06/10 11:49:15;;;;;;;7.15;2.00;;;;;;;;;;6184760;23;20503;-84
2023/06/10 11:51:48;;;;;;;4.10;1.40;;;;;;;;;;6185805;23;20715;-86
2023/06/10 11:54:15;;;;;;;2.55;1.10;;;;;;;;;;6211000;23;20420;-85
2023/06/10 11:56:41;;;;;;;2.65;1.50;;;;;;;;;;6211907;23;20020;-85
2023/06/10 11:59:09;;;;;;;3.53;1.33;;;;;;;;;;6211638;23;20004;-85
2023/06/10 12:01:40;;;;;;;2.75;1.00;;;;;;;;;;6184116;23;20052;-85
2023/06/10 12:04:07;;;;;;;4.15;1.45;;;;;;;;;;6210793;23;20005;-85
2023/06/10 12:06:39;;;;;;;2.65;1.17;;;;;;;;;;6184484;23;20437;-86
2023/06/10 12:09:29;;;;;;;5.30;1.58;;;;;;;;;;6181494;23;20017;-85
2023/06/10 12:11:58;;;;;;;3.50;1.48;;;;;;;;;;6168599;23;20024;-85
2023/06/10 12:14:43;;;;;;;5.65;1.40;;;;;;;;;;6184065;23;20040;-85
2023/06/10 12:17:10;;;;;;;1.90;1.17;;;;;;;;;;6183465;23;20464;-85
2023/06/10 12:19:39;;;;;;;2.63;1.33;;;;;;;;;;6183628;23;20005;-86
2023/06/10 12:22:05;;;;;;;5.15;1.80;;;;;;;;;;6183870;23;20012;-86
2023/06/10 12:24:31;;;;;;;3.03;1.58;;;;;;;;;;6185188;23;20001;-86
2023/06/10 12:26:58;;;;;;;3.03;1.42;;;;;;;;;;6186063;23;20436;-85
2023/06/10 12:29:25;;;;;;;3.97;1.50;;;;;;;;;;6185539;23;20048;-86
2023/06/10 12:31:55;;;;;;;2.85;1.60;;;;;;;;;;6186099;23;20084;-85
2023/06/10 12:34:29;;;;;;;3.28;1.52;;;;;;;;;;6180315;23;20608;-85
2023/06/10 12:36:55;;;;;;;5.13;1.30;;;;;;;;;;6180582;23;20036;-85
2023/06/10 12:39:21;;;;;;;3.60;1.25;;;;;;;;;;6180646;23;20001;-85
2023/06/10 12:41:50;;;;;;;2.30;1.00;;;;;;;;;;6181306;23;20313;-85
2023/06/10 12:44:16;;;;;;;2.42;1.00;;;;;;;;;;6180764;23;20005;-85
2023/06/10 12:46:42;;;;;;;2.03;0.88;;;;;;;;;;6181029;23;20085;-85
2023/06/10 12:49:09;;;;;;;2.20;1.02;;;;;;;;;;6180221;23;20009;-85
2023/06/10 12:51:36;;;;;;;1.48;0.68;;;;;;;;;;6181146;23;20017;-85
2023/06/10 12:54:02;;;;;;;2.65;0.90;;;;;;;;;;6180549;23;20018;-85
2023/06/10 12:56:28;;;;;;;5.13;1.10;;;;;;;;;;6180991;23;20027;-85
2023/06/10 12:58:54;;;;;;;3.08;0.90;;;;;;;;;;6180137;23;20092;-85
2023/06/10 13:01:21;;;;;;;3.22;1.10;;;;;;;;;;6181189;23;20051;-85
2023/06/10 13:03:47;;;;;;;5.75;0.93;;;;;;;;;;6180808;23;20009;-86
2023/06/10 13:06:13;;;;;;;2.75;1.00;;;;;;;;;;6181072;23;20056;-85
2023/06/10 13:08:39;;;;;;;1.48;0.73;;;;;;;;;;6179840;23;20035;-85
2023/06/10 13:11:05;;;;;;;4.28;0.80;;;;;;;;;;6182685;23;20015;-86
2023/06/10 13:13:31;;;;;;;1.55;0.90;;;;;;;;;;6179867;23;20401;-86
2023/06/10 13:15:57;;;;;;;1.92;0.90;;;;;;;;;;6183013;23;20013;-86
2023/06/10 13:18:23;;;;;;;2.15;0.80;;;;;;;;;;6180470;23;20420;-85
2023/06/10 13:20:49;;;;;;;2.15;0.95;;;;;;;;;;6182634;23;20004;-86
2023/06/10 13:23:15;;;;;;;1.83;0.80;;;;;;;;;;6180224;23;20017;-86
2023/06/10 13:25:44;;;;;;;1.90;0.77;;;;;;;;;;6181001;23;20013;-85
2023/06/10 13:28:11;;;;;;;2.97;0.90;;;;;;;;;;6182112;23;20017;-85
2023/06/10 13:30:37;;;;;;;2.55;0.80;;;;;;;;;;6179934;23;20013;-85
2023/06/10 13:33:03;;;;;;;3.60;0.80;;;;;;;;;;6183817;23;20017;-85
2023/06/10 13:35:29;;;;;;;2.05;0.82;;;;;;;;;;6211187;23;20012;-85
2023/06/10 13:37:55;;;;;;;2.15;0.70;;;;;;;;;;6185506;23;20035;-85
2023/06/10 13:40:22;;;;;;;5.03;0.90;;;;;;;;;;6184553;23;20024;-86
2023/06/10 13:42:50;;;;;;;1.80;0.85;;;;;;;;;;6185701;23;20005;-86
2023/06/10 13:45:18;;;;;;;2.25;0.88;;;;;;;;;;6184753;23;20013;-86
2023/06/10 13:47:44;;;;;;;1.80;0.70;;;;;;;;;;6185327;23;20009;-84
2023/06/10 13:50:11;;;;;;;4.05;1.00;;;;;;;;;;6184689;23;20027;-86
2023/06/10 13:52:37;;;;;;;4.05;1.02;;;;;;;;;;6185732;23;20023;-85
2023/06/10 13:55:03;;;;;;;4.47;1.13;;;;;;;;;;6211448;23;20012;-85
2023/06/10 13:57:29;;;;;;;2.58;1.00;;;;;;;;;;6185834;23;20420;-85
2023/06/10 13:59:56;;;;;;;2.83;1.05;;;;;;;;;;6211593;23;20020;-85
2023/06/10 14:02:22;;;;;;;2.72;0.85;;;;;;;;;;6185433;23;20035;-86
2023/06/10 14:04:48;;;;;;;2.63;0.85;;;;;;;;;;6211298;23;20119;-85
2023/06/10 14:07:15;;;;;;;2.22;0.80;;;;;;;;;;6185215;23;20048;-85
2023/06/10 14:09:41;;;;;;;2.35;1.08;;;;;;;;;;6184586;23;20336;-86
2023/06/10 14:12:11;;;;;;;1.75;0.70;;;;;;;;;;6185129;23;20012;-85
2023/06/10 14:14:37;;;;;;;2.00;0.90;;;;;;;;;;6184050;23;20014;-85
2023/06/10 14:17:04;;;;;;;1.70;0.80;;;;;;;;;;6184734;23;20023;-85
2023/06/10 14:19:30;;;;;;;1.98;0.73;;;;;;;;;;6184704;23;20005;-87
2023/06/10 14:21:56;;;;;;;3.42;0.75;;;;;;;;;;6183999;23;20040;-84
2023/06/10 14:24:22;;;;;;;2.13;0.80;;;;;;;;;;6185379;23;20043;-84
2023/06/10 14:26:48;;;;;;;1.50;0.75;;;;;;;;;;6185242;23;20013;-84
2023/06/10 14:29:14;;;;;;;1.75;0.65;;;;;;;;;;6184758;23;20348;-85
2023/06/10 14:31:40;;;;;;;1.63;0.50;;;;;;;;;;6212504;23;20009;-84
2023/06/10 14:34:07;;;;;;;1.42;0.52;;;;;;;;;;6186049;23;20376;-84
2023/06/10 14:36:34;;;;;;;1.40;0.40;;;;;;;;;;6187145;23;20019;-84
2023/06/10 14:39:00;;;;;;;0.90;0.50;;;;;;;;;;6186373;23;20505;-84
2023/06/10 14:41:26;;;;;;;0.80;0.40;;;;;;;;;;6186102;23;20063;-84
2023/06/10 14:43:53;;;;;;;2.53;0.50;;;;;;;;;;6185583;23;20001;-85
2023/06/10 14:46:20;;;;;;;1.50;0.50;;;;;;;;;;6184869;23;20048;-84
2023/06/10 14:48:46;;;;;;;1.10;0.50;;;;;;;;;;6184984;23;20019;-85
2023/06/10 14:51:12;;;;;;;1.50;0.47;;;;;;;;;;6184048;23;20027;-84
2023/06/10 14:53:38;;;;;;;0.50;0.40;;;;;;;;;;6184541;23;20012;-84
2023/06/10 14:56:05;;;;;;;4.70;1.08;;;;;;;;;;6184323;23;20124;-85
2023/06/10 14:58:31;;;;;;;4.15;1.38;;;;;;;;;;6211263;23;20381;-86
2023/06/10 15:00:57;;;;;;;4.70;1.98;;;;;;;;;;6184182;23;20020;-86
2023/06/10 15:03:23;;;;;;;6.20;2.03;;;;;;;;;;6183698;23;20428;-85
2023/06/10 15:05:49;;;;;;;4.55;1.70;;;;;;;;;;6184246;23;20021;-86
2023/06/10 15:08:15;;;;;;;3.38;1.65;;;;;;;;;;6184865;23;20433;-86
2023/06/10 15:10:41;;;;;;;3.90;1.83;;;;;;;;;;6184634;23;20508;-85
2023/06/10 15:13:07;;;;;;;5.35;1.73;;;;;;;;;;6184396;23;20026;-84
2023/06/10 15:15:33;;;;;;;3.38;1.48;;;;;;;;;;6184356;23;20107;-84
2023/06/10 15:17:59;;;;;;;4.72;1.58;;;;;;;;;;6210471;23;20005;-84
2023/06/10 15:20:25;;;;;;;3.33;1.50;;;;;;;;;;6183904;23;20047;-84
2023/06/10 15:22:51;;;;;;;3.58;1.50;;;;;;;;;;6184454;23;20005;-84
2023/06/10 15:25:17;;;;;;;3.58;1.65;;;;;;;;;;6184870;23;20040;-85
2023/06/10 15:27:43;;;;;;;5.82;1.65;;;;;;;;;;6184766;23;20024;-85
2023/06/10 15:30:09;;;;;;;1.90;0.70;;;;;;;;;;6184590;23;20012;-86
2023/06/10 15:32:35;;;;;;;5.57;1.25;;;;;;;;;;6184991;23;20012;-85
2023/06/10 15:35:01;;;;;;;4.07;0.95;;;;;;;;;;6183643;23;20035;-85
2023/06/10 15:37:27;;;;;;;1.55;0.70;;;;;;;;;;6211488;23;20019;-85
2023/06/10 15:39:53;;;;;;;2.10;0.70;;;;;;;;;;6210433;23;20079;-84
2023/06/10 15:42:19;;;;;;;7.10;1.33;;;;;;;;;;6210913;23;20000;-84
2023/06/10 15:44:45;;;;;;;3.25;0.90;;;;;;;;;;6184521;23;20008;-86
2023/06/10 15:47:11;;;;;;;2.15;0.90;;;;;;;;;;6184496;23;20013;-87
2023/06/10 15:49:37;;;;;;;3.65;0.90;;;;;;;;;;6184325;23;20034;-87
2023/06/10 15:52:03;;;;;;;4.30;0.95;;;;;;;;;;6184106;23;20009;-87
2023/06/10 15:54:30;;;;;;;1.95;1.10;;;;;;;;;;6184270;23;20014;-87
2023/06/10 15:56:56;;;;;;;3.85;1.52;;;;;;;;;;6184028;23;20017;-86
2023/06/10 15:59:22;;;;;;;2.85;1.48;;;;;;;;;;6184738;23;20011;-86
2023/06/10 16:01:48;;;;;;;2.47;1.17;;;;;;;;;;6185730;23;20099;-87
2023/06/10 16:04:14;;;;;;;2.22;1.02;;;;;;;;;;6186739;23;20009;-86
2023/06/10 16:06:40;;;;;;;3.83;1.40;;;;;;;;;;6185807;23;20020;-86
2023/06/10 16:09:06;;;;;;;5.20;1.13;;;;;;;;;;6186171;23;20326;-86
2023/06/10 16:11:32;;;;;;;2.15;0.95;;;;;;;;;;6185720;23;20020;-86
2023/06/10 16:13:59;;;;;;;2.75;0.80;;;;;;;;;;6187081;23;20023;-86
2023/06/10 16:16:25;;;;;;;3.50;1.13;;;;;;;;;;6186233;23;20294;-87
2023/06/10 16:18:51;;;;;;;3.47;1.10;;;;;;;;;;6186133;23;20009;-87
2023/06/10 16:21:23;;;;;;;4.43;1.50;;;;;;;;;;6186755;23;20032;-86
2023/06/10 16:23:49;;;;;;;2.90;1.00;;;;;;;;;;6186507;23;20417;-86
2023/06/10 16:26:18;;;;;;;3.35;0.88;;;;;;;;;;6214041;23;20020;-88
2023/06/10 16:29:06;;;;;;;2.22;0.75;;;;;;;;;;6175263;23;20881;-86
2023/06/10 16:31:36;;;;;;;1.30;0.70;;;;;;;;;;6158949;23;20025;-85
2023/06/10 16:34:15;;;;;;;1.27;0.60;;;;;;;;;;6156061;23;20091;-86
2023/06/10 16:36:48;;;;;;;1.73;0.80;;;;;;;;;;6156981;23;20101;-87
2023/06/10 16:39:17;;;;;;;1.65;0.70;;;;;;;;;;6156168;23;20052;-85
2023/06/10 16:41:43;;;;;;;3.42;0.90;;;;;;;;;;6156200;23;20108;-86
2023/06/10 16:44:09;;;;;;;3.10;0.70;;;;;;;;;;6185245;23;20112;-84
2023/06/10 16:46:35;;;;;;;3.35;1.00;;;;;;;;;;6212224;23;20005;-85
2023/06/10 16:49:01;;;;;;;2.97;0.93;;;;;;;;;;6186113;23;20084;-86
2023/06/10 16:56:48;;;;;;;1.90;0.90;;;;;;;;;;6151020;23;20021;-85
2023/06/10 16:59:14;;;;;;;4.10;1.02;;;;;;;;;;6126687;23;20085;-84
2023/06/10 17:08:42;;;;;;;;;;;;;;;;;;;;;
2023/06/10 17:11:19;;;;;;;2.88;1.00;;;;;;;;;;6151529;23;20132;-84
2023/06/10 17:22:01;;;;;;;;;;;;;;;;;;;;;
2023/06/10 17:27:53;;;;;;;2.47;1.10;;;;;;;;;;6207475;23;20032;-83
2023/06/10 17:30:28;;;;;;;4.53;1.13;;;;;;;;;;6125079;23;20021;-84
2023/06/10 17:32:54;;;;;;;3.03;0.80;;;;;;;;;;6124577;23;20442;-81
2023/06/10 17:35:20;;;;;;;1.65;0.90;;;;;;;;;;6099203;23;20014;-83
2023/06/10 17:45:43;;;;;;;;;;;;;;;;;;;;;
2023/06/10 17:48:13;;;;;;;3.05;1.70;;;;;;;;;;6210912;23;20614;-87
2023/06/10 17:50:41;;;;;;;4.13;1.77;;;;;;;;;;6212359;23;20008;-87
2023/06/10 17:53:17;;;;;;;2.38;1.48;;;;;;;;;;6185265;23;20011;-87
2023/06/10 17:56:03;;;;;;;6.80;1.73;;;;;;;;;;6185000;23;20040;-87
2023/06/10 17:58:37;;;;;;;4.13;1.80;;;;;;;;;;6183087;23;20016;-87
2023/06/10 18:07:00;;;;;;;4.55;1.40;;;;;;;;;;6098906;23;20074;-84
2023/06/10 18:09:36;;;;;;;2.92;1.52;;;;;;;;;;6213357;23;20008;-88
2023/06/10 18:12:11;;;;;;;6.10;1.80;;;;;;;;;;6185106;23;20100;-87
2023/06/10 18:14:37;;;;;;;5.00;1.48;;;;;;;;;;6211868;23;20155;-87
2023/06/10 18:17:03;;;;;;;3.83;1.50;;;;;;;;;;6185084;23;20750;-87
2023/06/10 18:19:29;;;;;;;2.78;1.20;;;;;;;;;;6185456;23;20020;-83
2023/06/10 18:21:55;;;;;;;2.80;1.40;;;;;;;;;;6212561;23;20039;-82
2023/06/10 18:24:32;;;;;;;4.25;1.23;;;;;;;;;;6211443;23;20005;-84
2023/06/10 18:35:33;;;;;;;4.57;1.27;;;;;;;;;;6185089;23;20028;-83
2023/06/10 18:37:59;;;;;;;3.47;1.67;;;;;;;;;;6158750;23;20013;-84
2023/06/10 18:40:54;;;;;;;6.45;1.88;;;;;;;;;;6185024;23;20008;-85
2023/06/10 18:46:20;;;;;;;4.95;1.70;;;;;;;;;;6172957;23;20597;-84
2023/06/10 20:10:52;;;;;;;6.20;2.45;;;;;;;;;;6182617;23;20032;-82
2023/06/10 20:20:03;;;;;;;;;;;;;;;;;;;;;
2023/06/10 20:22:46;;;;;;;5.28;2.80;;;;;;;;;;6093345;23;20085;-84
2023/06/10 20:25:13;;;;;;;7.72;4.28;;;;;;;;;;6092924;23;20022;-83
2023/06/10 20:31:01;;;;;;;4.20;2.72;;;;;;;;;;6174864;23;20023;-83
2023/06/10 20:36:15;;;;;;;153.07;104.50;;;;;;;;;;6216588;23;20059;-84
2023/06/10 20:39:16;;;;;;;40.63;27.67;;;;;;;;;;6206071;23;20040;-85
